Time;durP1;ratioP1;P1;durP2;ratioP2;P2;SDS_P1;SDS_P2;PMS_P1;PMS_P2;Temp;Humidity;BMP_temperature;BMP_pressure;BME280_temperature;BME280_humidity;BME280_pressure;Samples;Min_cycle;Max_cycle;Signal;HPM_P1;HPM_P2
2021/05/27 00:00:36;;;;;;;5.03;2.00;;;7.70;99.90;;;8.35;100.00;98129.28;5069692;28;21004;-74
2021/05/27 00:03:06;;;;;;;1.90;1.57;;;7.40;99.90;;;8.36;100.00;98130.91;5065971;28;20440;-74
2021/05/27 00:05:35;;;;;;;2.23;2.00;;;7.40;99.90;;;8.46;100.00;98125.47;5070888;28;20444;-74
2021/05/27 00:08:05;;;;;;;2.43;1.83;;;7.50;99.90;;;8.39;100.00;98127.97;5070628;28;20490;-74
2021/05/27 00:10:35;;;;;;;2.73;2.07;;;7.50;99.90;;;8.40;100.00;98128.78;5070635;28;20483;-74
2021/05/27 00:13:03;;;;;;;3.10;2.00;;;7.50;99.90;;;8.44;100.00;98133.47;5070581;28;20452;-74
2021/05/27 00:15:41;;;;;;;2.33;1.90;;;7.50;99.90;;;8.40;100.00;98131.38;5069122;28;20466;-74
2021/05/27 00:18:10;;;;;;;5.00;1.97;;;7.50;99.90;;;8.39;100.00;98135.78;5070609;28;20455;-74
2021/05/27 00:20:38;;;;;;;2.70;2.20;;;7.50;99.90;;;8.38;100.00;98136.75;5070292;28;20863;-74
2021/05/27 00:23:07;;;;;;;4.43;2.50;;;7.50;99.90;;;8.27;100.00;98137.09;5070431;28;20444;-74
2021/05/27 00:25:35;;;;;;;9.00;2.57;;;7.40;99.90;;;8.19;100.00;98147.53;5068068;28;20444;-73
2021/05/27 00:28:04;;;;;;;7.10;3.13;;;7.30;99.90;;;8.05;100.00;98140.47;5065712;28;20459;-73
2021/05/27 00:30:32;;;;;;;2.70;2.10;;;7.10;99.90;;;7.99;100.00;98143.72;5069888;28;20569;-74
2021/05/27 00:33:00;;;;;;;3.30;1.90;;;7.10;99.90;;;8.01;100.00;98147.00;5070523;28;20440;-74
2021/05/27 00:35:28;;;;;;;2.33;1.70;;;7.10;99.90;;;8.07;100.00;98141.09;5062682;28;20467;-74
2021/05/27 00:37:56;;;;;;;2.23;2.00;;;7.20;99.90;;;8.10;100.00;98140.75;5070311;28;20455;-74
2021/05/27 00:40:25;;;;;;;3.20;1.73;;;7.20;99.90;;;8.09;100.00;98139.13;5070231;28;20495;-74
2021/05/27 00:42:53;;;;;;;2.70;2.17;;;7.30;99.90;;;8.12;100.00;98138.81;5070649;28;20444;-74
2021/05/27 00:45:21;;;;;;;2.50;2.10;;;7.30;99.90;;;8.12;100.00;98138.00;5070052;28;20489;-74
2021/05/27 00:47:49;;;;;;;3.27;2.20;;;7.30;99.90;;;8.04;100.00;98147.47;5070311;28;20440;-74
2021/05/27 00:50:23;;;;;;;3.73;1.87;;;7.20;99.90;;;7.95;100.00;98150.25;5070008;28;21355;-74
2021/05/27 00:52:53;;;;;;;10.67;2.20;;;7.10;99.90;;;7.79;100.00;98150.28;5061074;28;20472;-74
2021/05/27 00:55:24;;;;;;;1.90;1.80;;;6.90;99.90;;;7.84;100.00;98156.66;5069481;28;20480;-74
2021/05/27 00:57:55;;;;;;;2.13;1.93;;;6.90;99.90;;;7.74;100.00;98161.19;5069767;28;20444;-73
2021/05/27 01:00:26;;;;;;;5.77;2.10;;;6.90;99.90;;;7.79;100.00;98158.09;5069686;28;20440;-74
2021/05/27 01:02:54;;;;;;;3.00;2.13;;;6.90;99.90;;;7.79;100.00;98160.72;5069421;28;20445;-74
2021/05/27 01:05:23;;;;;;;6.53;2.07;;;6.90;99.90;;;7.67;100.00;98162.06;5065360;28;20445;-74
2021/05/27 01:07:51;;;;;;;2.70;2.23;;;6.70;99.90;;;7.68;100.00;98159.25;5069864;28;20733;-74
2021/05/27 01:10:19;;;;;;;1.83;1.63;;;6.80;99.90;;;7.73;100.00;98153.56;5068690;28;20488;-74
2021/05/27 01:12:47;;;;;;;3.20;2.33;;;6.80;99.90;;;7.65;100.00;98156.19;5069496;28;20444;-74
2021/05/27 01:15:28;;;;;;;3.00;2.23;;;6.70;99.90;;;7.69;100.00;98162.69;5069640;28;20452;-74
2021/05/27 01:17:57;;;;;;;15.43;2.20;;;6.80;99.90;;;7.70;100.00;98165.13;5067088;28;20456;-74
2021/05/27 01:20:26;;;;;;;3.37;2.40;;;6.80;99.90;;;7.71;100.00;98151.13;5069745;28;20850;-74
2021/05/27 01:22:56;;;;;;;3.67;2.27;;;6.90;99.90;;;7.77;100.00;98154.88;5068506;28;20475;-74
2021/05/27 01:25:24;;;;;;;3.40;2.73;;;6.90;99.90;;;7.79;100.00;98152.91;5062689;28;20452;-74
2021/05/27 01:27:52;;;;;;;6.87;3.37;;;7.00;99.90;;;7.83;100.00;98156.78;5066112;28;20432;-73
2021/05/27 01:30:21;;;;;;;4.57;2.83;;;7.00;99.90;;;7.81;100.00;98151.75;5069634;28;20483;-74
2021/05/27 01:32:50;;;;;;;2.80;2.57;;;7.00;99.90;;;7.83;100.00;98149.00;5066459;28;20440;-74
2021/05/27 01:35:21;;;;;;;3.60;2.87;;;7.00;99.90;;;7.83;100.00;98152.41;5062203;28;20508;-74
2021/05/27 01:37:50;;;;;;;4.20;3.47;;;7.00;99.90;;;7.87;100.00;98151.09;5069072;28;20920;-73
2021/05/27 01:40:21;;;;;;;6.13;3.50;;;7.00;99.90;;;7.90;100.00;98144.75;5065578;28;20436;-74
2021/05/27 01:42:50;;;;;;;3.97;3.40;;;7.20;99.90;;;7.93;100.00;98149.59;5069055;28;20448;-74
2021/05/27 01:45:18;;;;;;;6.03;4.17;;;7.20;99.90;;;7.91;100.00;98152.38;5062565;28;20452;-74
2021/05/27 01:47:46;;;;;;;6.10;3.80;;;7.10;99.90;;;7.98;100.00;98153.31;5069101;28;20432;-74
2021/05/27 01:50:20;;;;;;;5.53;4.27;;;7.30;99.90;;;7.95;100.00;98156.25;5068338;28;20476;-74
2021/05/27 01:52:49;;;;;;;13.23;4.10;;;7.10;99.90;;;7.89;100.00;98159.53;5069073;28;20440;-74
2021/05/27 01:55:18;;;;;;;10.07;4.13;;;7.10;99.90;;;7.95;100.00;98158.06;5068456;28;20521;-74
2021/05/27 01:57:46;;;;;;;4.60;4.07;;;7.30;99.90;;;7.97;100.00;98158.72;5064068;28;20977;-74
2021/05/27 02:00:15;;;;;;;15.17;4.27;;;7.30;99.90;;;7.98;100.00;98153.31;5068311;28;20460;-74
2021/05/27 02:02:44;;;;;;;5.43;4.00;;;7.30;99.90;;;7.93;100.00;98150.41;5067576;28;20493;-73
2021/05/27 02:05:14;;;;;;;5.30;3.70;;;7.10;99.90;;;7.98;100.00;98152.53;5064329;28;20441;-74
2021/05/27 02:07:43;;;;;;;5.50;4.03;;;7.20;99.90;;;7.98;100.00;98152.53;5061806;28;20506;-74
2021/05/27 02:10:12;;;;;;;10.10;3.23;;;7.20;99.90;;;7.97;100.00;98150.91;5062940;28;20451;-74
2021/05/27 02:12:41;;;;;;;4.40;3.60;;;7.20;99.90;;;7.96;100.00;98155.28;5065821;28;20466;-74
2021/05/27 02:15:11;;;;;;;5.80;3.50;;;7.10;99.90;;;7.91;100.00;98165.38;5068225;28;20444;-74
2021/05/27 02:17:39;;;;;;;7.90;3.70;;;7.10;99.90;;;7.83;100.00;98156.78;5068696;28;20440;-74
2021/05/27 02:20:10;;;;;;;8.83;4.10;;;7.00;99.90;;;7.84;100.00;98164.47;5068681;28;20499;-74
2021/05/27 02:22:38;;;;;;;9.30;3.70;;;7.00;99.90;;;7.73;100.00;98169.19;5065340;28;20456;-74
2021/05/27 02:25:08;;;;;;;4.70;3.97;;;6.90;99.90;;;7.65;100.00;98164.00;5065705;28;20491;-74
2021/05/27 02:27:36;;;;;;;7.20;4.70;;;6.80;99.90;;;7.65;100.00;98171.78;5066759;28;20707;-74
2021/05/27 02:30:08;;;;;;;6.33;4.43;;;6.70;99.90;;;7.59;100.00;98173.28;5068811;28;20462;-74
2021/05/27 02:32:36;;;;;;;6.40;3.90;;;6.70;99.90;;;7.64;100.00;98162.34;5068612;28;20441;-74
2021/05/27 02:35:05;;;;;;;5.80;4.10;;;6.80;99.90;;;7.68;100.00;98159.25;5062728;28;20507;-74
2021/05/27 02:37:34;;;;;;;5.07;4.13;;;6.80;99.90;;;7.75;100.00;98157.63;5067565;28;20452;-74
2021/05/27 02:40:04;;;;;;;10.20;4.07;;;6.90;99.90;;;7.80;100.00;98163.16;5062555;28;20453;-74
2021/05/27 02:42:32;;;;;;;9.90;3.83;;;7.00;99.90;;;7.82;100.00;98158.59;5068233;28;20800;-74
2021/05/27 02:45:01;;;;;;;5.07;4.20;;;7.10;99.90;;;7.87;100.00;98161.50;5068503;28;20502;-74
2021/05/27 02:47:30;;;;;;;5.77;3.47;;;7.20;99.90;;;7.87;100.00;98168.50;5067936;28;20440;-74
2021/05/27 02:49:58;;;;;;;5.90;3.87;;;7.10;99.90;;;7.90;100.00;98173.38;5067131;28;20460;-74
2021/05/27 02:52:26;;;;;;;6.77;4.40;;;7.10;99.90;;;7.89;100.00;98167.34;5068711;28;20913;-74
2021/05/27 02:54:54;;;;;;;5.63;3.80;;;7.10;99.90;;;7.88;100.00;98175.34;5068172;28;21057;-74
2021/05/27 02:57:22;;;;;;;6.67;4.27;;;7.10;99.90;;;7.93;100.00;98178.25;5065443;28;20442;-73
2021/05/27 02:59:50;;;;;;;7.93;4.60;;;7.20;99.90;;;7.97;100.00;98169.94;5068206;28;20444;-74
2021/05/27 03:02:18;;;;;;;6.90;4.70;;;7.20;99.90;;;8.02;100.00;98169.41;5064935;28;20456;-74
2021/05/27 03:04:47;;;;;;;8.67;5.50;;;7.30;99.90;;;8.08;100.00;98173.97;5065214;28;20854;-74
2021/05/27 03:07:15;;;;;;;7.20;4.20;;;7.40;99.90;;;8.10;100.00;98167.63;5067554;28;20441;-74
2021/05/27 03:09:43;;;;;;;12.83;5.10;;;7.50;99.90;;;8.12;100.00;98164.84;5068393;28;20448;-74
2021/05/27 03:12:12;;;;;;;6.20;5.00;;;7.50;99.90;;;8.16;100.00;98171.31;5067824;28;20494;-74
2021/05/27 03:14:40;;;;;;;10.00;4.87;;;7.60;99.90;;;8.18;100.00;98177.19;5067958;28;20436;-74
2021/05/27 03:17:08;;;;;;;10.63;5.27;;;7.50;99.90;;;8.21;100.00;98178.66;5068248;28;20444;-74
2021/05/27 03:19:36;;;;;;;8.00;4.90;;;7.50;99.90;;;8.25;100.00;98180.75;5067509;28;20440;-74
2021/05/27 03:22:05;;;;;;;11.60;4.80;;;7.50;99.90;;;8.30;100.00;98182.84;5067211;28;20437;-74
2021/05/27 03:24:33;;;;;;;6.40;4.77;;;7.60;99.90;;;8.25;100.00;98180.75;5067641;28;20742;-74
2021/05/27 03:27:01;;;;;;;10.93;4.90;;;7.50;99.90;;;8.20;100.00;98177.81;5068360;28;20986;-74
2021/05/27 03:29:29;;;;;;;7.30;4.87;;;7.50;99.90;;;8.25;100.00;98175.53;5064927;28;20445;-74
2021/05/27 03:31:57;;;;;;;6.93;4.80;;;7.60;99.90;;;8.29;100.00;98173.44;5064909;28;20565;-74
2021/05/27 03:34:25;;;;;;;11.23;5.10;;;7.60;99.90;;;8.31;100.00;98185.31;5066459;28;20462;-74
2021/05/27 03:36:53;;;;;;;9.80;4.20;;;7.60;99.90;;;8.36;100.00;98188.22;5062767;28;20447;-74
2021/05/27 03:39:22;;;;;;;7.80;4.77;;;7.70;99.90;;;8.39;100.00;98180.06;5067953;28;20444;-73
2021/05/27 03:41:51;;;;;;;5.83;4.70;;;7.70;99.90;;;8.42;100.00;98176.31;5067742;28;20444;-74
2021/05/27 03:44:19;;;;;;;7.77;4.93;;;7.80;99.90;;;8.38;100.00;98191.47;5067715;28;20458;-74
2021/05/27 03:46:47;;;;;;;6.30;4.80;;;7.70;99.90;;;8.41;100.00;98188.53;5068038;28;20769;-73
2021/05/27 03:49:15;;;;;;;11.63;5.43;;;7.70;99.90;;;8.45;100.00;98183.78;5067659;28;20455;-73
2021/05/27 03:51:44;;;;;;;5.90;4.60;;;7.80;99.90;;;8.49;100.00;98187.69;5066940;28;20541;-74
2021/05/27 03:54:13;;;;;;;13.13;4.17;;;7.90;99.90;;;8.45;100.00;98179.38;5066509;28;20475;-74
2021/05/27 03:56:42;;;;;;;6.40;4.63;;;7.90;99.90;;;8.48;100.00;98186.03;5067499;28;20479;-74
2021/05/27 04:01:57;;;;;;;10.30;4.40;;;8.00;99.90;;;8.53;100.00;98183.75;5062315;28;21000;-74
2021/05/27 04:07:12;;;;;;;12.53;5.10;;;7.90;99.90;;;8.55;100.00;98182.59;5065073;28;20510;-74
2021/05/27 04:09:41;;;;;;;9.30;4.40;;;7.90;99.90;;;8.61;100.00;98182.91;5067694;28;20501;-73
2021/05/27 04:17:44;;;;;;;7.20;4.87;;;8.10;99.90;;;8.63;100.00;98186.13;5067561;28;20452;-74
2021/05/27 04:20:13;;;;;;;5.90;4.70;;;8.10;99.90;;;8.62;100.00;98193.16;5064781;28;20440;-74
2021/05/27 04:22:42;;;;;;;8.70;5.00;;;8.10;99.90;;;8.67;100.00;98188.25;5067672;28;20449;-74
2021/05/27 04:25:14;;;;;;;6.87;4.47;;;8.10;99.90;;;8.69;100.00;98188.88;5065145;28;20440;-74
2021/05/27 04:27:45;;;;;;;5.70;4.20;;;8.10;99.90;;;8.73;100.00;98190.16;5062858;28;20464;-74
2021/05/27 04:30:16;;;;;;;9.13;4.93;;;8.10;99.90;;;8.77;100.00;98198.44;5067326;28;20455;-74
2021/05/27 04:32:57;;;;;;;6.70;4.97;;;8.10;99.90;;;8.82;100.00;98196.13;5066947;28;20499;-74
2021/05/27 04:35:33;;;;;;;5.90;4.63;;;8.20;99.90;;;8.86;100.00;98192.19;5067409;28;20472;-73
2021/05/27 04:38:06;;;;;;;6.60;4.60;;;8.20;99.90;;;8.89;100.00;98192.66;5070287;28;20497;-74
2021/05/27 04:40:36;;;;;;;5.93;5.30;;;8.30;99.90;;;8.90;100.00;98188.25;5071207;28;20444;-74
2021/05/27 04:43:06;;;;;;;8.70;4.50;;;8.30;99.90;;;8.90;100.00;98196.09;5071152;28;20830;-74
2021/05/27 04:45:35;;;;;;;6.30;4.90;;;8.20;99.90;;;8.86;100.00;98194.78;5065824;28;20470;-74
2021/05/27 04:48:09;;;;;;;9.80;4.77;;;8.30;99.90;;;8.89;100.00;98197.06;5070916;28;20510;-73
2021/05/27 04:50:38;;;;;;;5.53;4.30;;;8.30;99.90;;;8.94;100.00;98202.59;5066114;28;20998;-74
2021/05/27 04:53:07;;;;;;;5.23;4.17;;;8.30;99.90;;;8.97;100.00;98207.44;5070699;28;21093;-74
2021/05/27 04:55:36;;;;;;;5.83;3.97;;;8.40;99.90;;;8.97;100.00;98205.66;5070795;28;20479;-74
2021/05/27 04:58:06;;;;;;;8.30;3.97;;;8.30;99.90;;;9.00;100.00;98205.31;5069989;28;20448;-74
2021/05/27 05:00:34;;;;;;;7.73;3.97;;;8.40;99.90;;;9.03;100.00;98207.56;5069125;28;20502;-74
2021/05/27 05:03:03;;;;;;;8.73;4.10;;;8.40;99.90;;;8.99;100.00;98201.06;5068959;28;20960;-74
2021/05/27 05:05:34;;;;;;;6.30;4.30;;;8.30;99.90;;;9.02;100.00;98205.16;5067621;28;20856;-73
2021/05/27 05:08:03;;;;;;;6.50;4.60;;;8.30;99.90;;;9.01;100.00;98206.13;5066177;28;20456;-74
2021/05/27 05:10:32;;;;;;;9.13;5.07;;;8.30;99.90;;;9.03;100.00;98210.19;5061903;28;21090;-74
2021/05/27 05:13:01;;;;;;;8.50;4.13;;;8.30;99.90;;;9.00;100.00;98212.31;5064933;28;20782;-74
2021/05/27 05:15:33;;;;;;;6.30;4.20;;;8.30;99.90;;;9.07;100.00;98213.25;5062839;28;20918;-74
2021/05/27 05:18:04;;;;;;;13.73;6.00;;;8.30;99.90;;;9.07;100.00;98213.25;5062158;28;20563;-74
2021/05/27 05:20:36;;;;;;;6.43;4.70;;;8.40;99.90;;;9.08;100.00;98214.88;5064367;28;20476;-74
2021/05/27 05:23:05;;;;;;;10.70;3.80;;;8.30;99.90;;;9.12;100.00;98213.56;5065603;28;20464;-74
2021/05/27 05:25:35;;;;;;;12.00;5.97;;;8.40;99.90;;;9.12;100.00;98210.13;5068106;28;20460;-74
2021/05/27 05:28:05;;;;;;;7.43;4.53;;;8.40;99.90;;;9.17;100.00;98210.41;5061057;28;20457;-74
2021/05/27 05:30:36;;;;;;;4.60;3.10;;;8.50;99.90;;;9.22;100.00;98210.72;5069173;28;20553;-74
2021/05/27 05:33:04;;;;;;;6.97;3.60;;;8.50;99.90;;;9.19;100.00;98206.66;5069289;28;20479;-73
2021/05/27 05:35:33;;;;;;;8.73;3.33;;;8.50;99.90;;;9.25;100.00;98219.00;5070003;28;20440;-73
2021/05/27 05:38:01;;;;;;;5.97;3.97;;;8.50;99.90;;;9.28;100.00;98208.22;5066489;28;20797;-73
2021/05/27 05:40:30;;;;;;;9.17;4.33;;;8.60;99.90;;;9.29;100.00;98207.22;5062714;28;20514;-73
2021/05/27 05:42:59;;;;;;;7.13;4.20;;;8.60;99.90;;;9.32;100.00;98206.88;5067589;28;20956;-74
2021/05/27 05:45:28;;;;;;;4.93;4.03;;;8.60;99.90;;;9.31;100.00;98205.25;5069072;28;20440;-73
2021/05/27 05:48:00;;;;;;;10.23;6.27;;;8.60;99.90;;;9.35;100.00;98206.53;5064829;28;20465;-78
2021/05/27 05:50:46;;;;;;;6.07;4.80;;;8.60;99.90;;;9.40;100.00;98213.84;5064927;28;20490;-74
2021/05/27 05:53:18;;;;;;;10.57;4.83;;;8.70;99.90;;;9.43;100.00;98218.72;5059944;28;20852;-74
2021/05/27 05:55:48;;;;;;;8.30;5.10;;;8.70;99.90;;;9.47;100.00;98220.78;5065959;28;20480;-74
2021/05/27 05:58:17;;;;;;;12.00;4.87;;;8.80;99.90;;;9.48;100.00;98221.59;5067967;28;20444;-73
2021/05/27 06:00:46;;;;;;;9.20;4.80;;;8.80;99.90;;;9.51;100.00;98216.81;5062680;28;20841;-74
2021/05/27 06:03:15;;;;;;;6.27;4.23;;;8.80;99.90;;;9.55;100.00;98215.50;5068845;28;20457;-74
2021/05/27 06:05:43;;;;;;;6.57;5.40;;;8.90;99.90;;;9.55;100.00;98223.31;5068776;28;20437;-74
2021/05/27 06:08:11;;;;;;;7.73;5.40;;;8.90;99.90;;;9.51;100.00;98211.59;5068889;28;21006;-74
2021/05/27 06:10:40;;;;;;;6.63;4.87;;;8.80;99.90;;;9.50;100.00;98207.41;5068678;28;20470;-74
2021/05/27 06:13:08;;;;;;;7.13;4.83;;;8.70;99.90;;;9.59;100.00;98219.38;5068390;28;20484;-74
2021/05/27 06:15:37;;;;;;;7.83;5.67;;;8.90;99.90;;;9.62;100.00;98223.44;5068558;28;20432;-74
2021/05/27 06:18:05;;;;;;;10.40;5.50;;;8.90;99.90;;;9.64;100.00;98228.47;5060837;28;20494;-74
2021/05/27 06:20:34;;;;;;;5.73;5.13;;;9.00;99.90;;;9.69;100.00;98233.97;5066393;28;20448;-73
2021/05/27 06:23:02;;;;;;;9.10;4.90;;;9.00;99.90;;;9.75;100.00;98238.50;5066594;28;20528;-74
2021/05/27 06:25:32;;;;;;;10.87;5.00;;;9.00;99.90;;;9.81;100.00;98237.78;5067658;28;20494;-73
2021/05/27 06:28:00;;;;;;;10.63;5.10;;;9.10;99.90;;;9.86;100.00;98235.44;5068099;28;20436;-74
2021/05/27 06:30:28;;;;;;;6.40;4.33;;;9.20;99.90;;;9.94;100.00;98244.03;5064644;28;20509;-73
2021/05/27 06:32:58;;;;;;;15.43;5.37;;;9.30;99.90;;;9.99;100.00;98236.47;5066313;28;20480;-74
2021/05/27 06:35:26;;;;;;;8.83;5.17;;;9.30;99.90;;;10.03;100.00;98248.19;5066049;28;20494;-74
2021/05/27 06:37:55;;;;;;;7.67;5.03;;;9.40;99.90;;;10.04;100.00;98246.38;5068340;28;20432;-73
2021/05/27 06:40:25;;;;;;;7.13;4.77;;;9.40;99.90;;;10.05;100.00;98255.84;5068334;28;20578;-74
2021/05/27 06:42:53;;;;;;;7.70;5.13;;;9.40;99.90;;;10.10;100.00;98248.28;5063368;28;20488;-75
2021/05/27 06:45:23;;;;;;;62.50;28.07;;;9.40;99.90;;;10.13;100.00;98253.94;5060617;28;20463;-81
2021/05/27 06:47:52;;;;;;;10.27;6.87;;;9.50;99.90;;;10.18;100.00;98250.84;5063933;28;20475;-74
2021/05/27 06:50:35;;;;;;;6.23;4.70;;;9.50;99.90;;;10.24;100.00;98250.13;5060401;28;20938;-74
2021/05/27 06:53:07;;;;;;;7.70;5.40;;;9.60;99.90;;;10.29;100.00;98252.19;5068065;28;21008;-74
2021/05/27 06:55:37;;;;;;;8.83;4.70;;;9.70;99.90;;;10.32;100.00;98247.44;5066470;28;20484;-74
2021/05/27 06:58:07;;;;;;;8.60;4.33;;;9.70;99.90;;;10.35;100.00;98257.53;5067626;28;20474;-74
2021/05/27 07:00:35;;;;;;;5.70;4.47;;;9.70;99.90;;;10.37;100.00;98266.00;5065600;28;20494;-74
2021/05/27 07:03:05;;;;;;;5.03;3.83;;;9.80;99.90;;;10.38;100.00;98267.59;5066688;28;20432;-74
2021/05/27 07:05:34;;;;;;;4.67;4.03;;;9.80;99.90;;;10.41;100.00;98271.69;5065278;28;20467;-74
2021/05/27 07:08:06;;;;;;;8.17;4.10;;;9.80;99.90;;;10.46;100.00;98275.38;5067897;28;20444;-74
2021/05/27 07:10:35;;;;;;;6.50;4.13;;;9.90;99.90;;;10.48;100.00;98276.00;5067651;28;20578;-74
2021/05/27 07:13:07;;;;;;;6.20;4.90;;;9.80;99.90;;;10.54;100.00;98283.13;5066971;28;20508;-74
2021/05/27 07:15:36;;;;;;;15.33;3.83;;;9.90;99.90;;;10.57;100.00;98289.81;5067356;28;20551;-74
2021/05/27 07:18:05;;;;;;;5.07;4.40;;;10.00;99.90;;;10.64;100.00;98295.13;5063499;28;20468;-74
2021/05/27 07:20:37;;;;;;;9.70;4.13;;;10.00;99.90;;;10.69;100.00;98300.63;5065170;28;20457;-74
2021/05/27 07:23:06;;;;;;;5.50;3.40;;;10.10;99.90;;;10.74;100.00;98293.03;5059879;28;20871;-74
2021/05/27 07:25:34;;;;;;;4.43;2.90;;;10.20;99.90;;;10.76;100.00;98293.69;5065591;28;20463;-74
2021/05/27 07:28:03;;;;;;;5.23;3.23;;;10.20;99.90;;;10.71;100.00;98301.25;5061547;28;20464;-81
2021/05/27 07:30:32;;;;;;;6.27;3.17;;;10.20;99.90;;;10.68;100.00;98302.44;5062528;28;20471;-74
2021/05/27 07:33:00;;;;;;;5.27;3.40;;;10.20;99.90;;;10.71;100.00;98298.63;5067103;28;20492;-74
2021/05/27 07:35:29;;;;;;;4.67;3.20;;;10.20;99.90;;;10.77;100.00;98293.47;5062080;28;20476;-74
2021/05/27 07:37:59;;;;;;;3.60;2.73;;;10.30;99.90;;;10.80;100.00;98302.75;5063000;28;20448;-75
2021/05/27 07:40:28;;;;;;;5.47;3.17;;;10.30;99.90;;;10.86;100.00;98307.28;5061726;28;21392;-73
2021/05/27 07:42:57;;;;;;;6.77;3.13;;;10.30;99.90;;;10.81;100.00;98305.22;5061933;28;20575;-75
2021/05/27 07:45:25;;;;;;;4.03;2.97;;;10.30;99.90;;;10.86;100.00;98313.34;5064294;28;20464;-74
2021/05/27 07:47:54;;;;;;;9.00;3.10;;;10.30;99.90;;;10.87;100.00;98306.28;5062540;28;20463;-74
2021/05/27 07:50:23;;;;;;;7.23;3.10;;;10.30;99.90;;;10.97;100.00;98301.56;5065656;28;20464;-74
2021/05/27 07:52:53;;;;;;;6.23;3.47;;;10.40;99.90;;;11.03;100.00;98304.28;5063231;28;20868;-75
2021/05/27 07:55:20;;;;;;;5.00;3.00;;;10.40;99.90;;;11.02;100.00;98304.44;5059525;28;20547;-75
2021/05/27 07:57:49;;;;;;;4.43;3.00;;;10.40;99.90;;;11.05;100.00;98306.69;5065346;28;20525;-74
2021/05/27 08:00:18;;;;;;;6.73;3.23;;;10.40;99.90;;;11.10;100.00;98315.66;5062292;28;20868;-75
2021/05/27 08:02:48;;;;;;;5.60;2.63;;;10.60;99.90;;;11.08;100.00;98316.78;5061096;28;20981;-74
2021/05/27 08:05:17;;;;;;;4.17;3.60;;;10.50;99.90;;;11.13;100.00;98309.22;5064473;28;20468;-74
2021/05/27 08:07:46;;;;;;;4.60;2.73;;;10.50;99.90;;;11.19;100.00;98308.47;5065566;28;20983;-74
2021/05/27 08:10:14;;;;;;;3.50;3.10;;;10.60;99.90;;;11.23;100.00;98307.13;5059834;28;20483;-74
2021/05/27 08:12:43;;;;;;;5.53;3.30;;;10.70;99.90;;;11.24;100.00;98298.28;5068739;28;20519;-74
2021/05/27 08:15:12;;;;;;;7.60;3.57;;;10.70;99.90;;;11.28;100.00;98302.13;5066140;28;20544;-75
2021/05/27 08:17:40;;;;;;;3.90;2.90;;;10.70;99.90;;;11.31;100.00;98293.13;5064829;28;20456;-74
2021/05/27 08:20:11;;;;;;;4.90;3.30;;;10.80;99.90;;;11.31;100.00;98290.50;5062051;28;20463;-74
2021/05/27 08:22:39;;;;;;;4.03;3.53;;;10.80;99.90;;;11.38;100.00;98297.44;5065203;28;20460;-74
2021/05/27 08:25:09;;;;;;;17.50;2.63;;;10.90;99.90;;;11.40;100.00;98294.59;5069647;28;20543;-74
2021/05/27 08:27:37;;;;;;;2.83;2.53;;;10.90;99.90;;;11.37;100.00;98290.56;5066304;28;20852;-75
2021/05/27 08:30:07;;;;;;;4.63;2.50;;;10.80;99.90;;;11.40;100.00;98290.19;5065685;28;20462;-75
2021/05/27 08:32:36;;;;;;;2.37;2.17;;;10.80;99.90;;;11.41;100.00;98291.00;5072362;28;20510;-74
2021/05/27 08:35:07;;;;;;;3.70;3.10;;;10.70;99.90;;;11.48;100.00;98297.13;5066837;28;20509;-75
2021/05/27 08:37:35;;;;;;;3.93;2.60;;;10.80;99.90;;;11.55;100.00;98298.81;5066843;28;20461;-75
2021/05/27 08:40:06;;;;;;;2.30;2.07;;;11.00;99.90;;;11.67;100.00;98306.97;5065779;28;20449;-75
2021/05/27 08:42:36;;;;;;;3.40;2.17;;;11.10;99.90;;;11.71;100.00;98303.00;5068916;28;20452;-75
2021/05/27 08:45:08;;;;;;;4.03;2.00;;;11.10;99.90;;;11.79;100.00;98309.94;5069210;28;20468;-75
2021/05/27 08:47:39;;;;;;;3.87;2.20;;;11.20;99.90;;;11.82;100.00;98301.69;5070708;28;20459;-75
2021/05/27 08:50:11;;;;;;;4.57;1.87;;;11.20;99.90;;;11.88;100.00;98306.97;5061009;28;20468;-74
2021/05/27 08:52:41;;;;;;;16.20;8.73;;;11.50;99.90;;;11.96;100.00;98308.66;5070431;28;20864;-80
2021/05/27 08:55:12;;;;;;;6.60;2.50;;;11.50;99.90;;;12.05;100.00;98304.91;5068907;28;21105;-74
2021/05/27 08:57:40;;;;;;;2.17;1.93;;;11.60;99.90;;;12.16;100.00;98307.00;5067003;28;20513;-74
2021/05/27 09:00:09;;;;;;;3.30;2.00;;;11.70;99.90;;;12.32;100.00;98306.72;5068855;28;21016;-75
2021/05/27 09:02:55;;;;;;;5.67;2.30;;;11.80;99.90;;;12.44;100.00;98305.19;5053702;28;20495;-74
2021/05/27 09:05:25;;;;;;;8.33;2.30;;;12.00;99.90;;;12.52;100.00;98320.78;5068071;28;20964;-75
2021/05/27 09:07:53;;;;;;;3.87;1.60;;;12.00;99.90;;;12.53;100.00;98325.00;5066745;28;20563;-75
2021/05/27 09:10:37;;;;;;;4.13;1.90;;;12.00;99.90;;;12.52;100.00;98327.84;5067261;28;20464;-75
2021/05/27 09:13:09;;;;;;;2.20;2.00;;;12.10;99.90;;;12.59;100.00;98321.63;5068360;28;20495;-74
2021/05/27 09:15:38;;;;;;;2.90;1.70;;;12.10;99.90;;;12.71;100.00;98323.69;5063425;28;20460;-75
2021/05/27 09:18:07;;;;;;;2.83;2.10;;;12.20;99.90;;;12.78;100.00;98327.16;5069419;28;20490;-75
2021/05/27 09:20:37;;;;;;;4.30;1.70;;;12.20;99.90;;;12.76;100.00;98344.94;5066224;28;20467;-75
2021/05/27 09:23:14;;;;;;;4.93;2.20;;;12.20;99.90;;;12.80;100.00;98330.44;5065101;28;20468;-74
2021/05/27 09:25:45;;;;;;;5.33;2.53;;;12.40;99.90;;;12.89;100.00;98324.81;5068127;28;20455;-75
2021/05/27 09:28:22;;;;;;;9.60;1.90;;;12.40;99.90;;;12.94;100.00;98327.69;5064735;28;20490;-74
2021/05/27 09:30:54;;;;;;;2.43;1.63;;;12.50;99.90;;;13.00;100.00;98332.16;5066476;28;20545;-79
2021/05/27 09:33:32;;;;;;;7.60;2.33;;;12.60;99.90;;;13.08;100.00;98320.66;5068078;28;20483;-74
2021/05/27 09:36:03;;;;;;;4.20;2.13;;;12.50;99.90;;;13.09;100.00;98335.44;5063732;28;20825;-79
2021/05/27 09:38:34;;;;;;;3.00;1.70;;;12.50;99.90;;;13.07;100.00;98329.53;5063617;28;21053;-79
2021/05/27 09:41:16;;;;;;;2.63;1.80;;;12.50;99.90;;;13.01;99.30;98325.09;5060560;28;20472;-79
2021/05/27 09:43:49;;;;;;;3.57;1.93;;;12.40;99.90;;;13.11;100.00;98328.19;5069924;28;20440;-79
2021/05/27 09:46:18;;;;;;;2.93;2.10;;;12.50;99.90;;;13.13;100.00;98320.91;5065960;28;20998;-79
2021/05/27 09:48:47;;;;;;;3.40;2.07;;;12.50;99.90;;;13.25;100.00;98334.28;5066889;28;20968;-79
2021/05/27 09:51:26;;;;;;;3.73;1.70;;;12.70;99.90;;;13.28;100.00;98329.47;5064854;28;20502;-79
2021/05/27 09:53:57;;;;;;;8.03;2.00;;;12.70;99.90;;;13.41;100.00;98324.25;5068012;28;20948;-79
2021/05/27 09:56:37;;;;;;;4.07;1.93;;;12.90;99.90;;;13.36;98.70;98331.91;5065749;28;20476;-79
2021/05/27 09:59:09;;;;;;;5.53;2.03;;;12.80;99.90;;;13.35;96.60;98325.03;5063310;28;20455;-79
2021/05/27 10:01:38;;;;;;;2.50;1.77;;;12.90;99.90;;;13.42;98.55;98322.44;5065071;28;20460;-79
2021/05/27 10:04:15;;;;;;;4.00;1.70;;;13.00;99.90;;;13.45;97.98;98322.84;5064352;28;20509;-79
2021/05/27 10:06:44;;;;;;;5.23;1.80;;;13.00;99.90;;;13.56;98.57;98316.19;5064692;28;20467;-79
2021/05/27 10:09:12;;;;;;;56.13;27.30;;;13.00;99.90;;;13.61;99.45;98314.59;5065396;28;20459;-81
2021/05/27 10:11:41;;;;;;;3.07;2.20;;;13.10;99.90;;;13.71;99.25;98316.03;5062479;28;20455;-79
2021/05/27 10:14:09;;;;;;;6.23;2.27;;;13.20;99.90;;;13.82;98.34;98320.66;5065331;28;20491;-79
2021/05/27 10:16:38;;;;;;;2.57;1.60;;;13.30;99.90;;;13.83;98.43;98309.97;5066355;28;20464;-79
2021/05/27 10:19:07;;;;;;;6.40;1.60;;;13.30;99.90;;;13.87;95.58;98302.50;5061474;28;20464;-79
2021/05/27 10:21:38;;;;;;;2.70;1.70;;;13.30;99.90;;;13.99;95.16;98306.94;5064967;28;20460;-78
2021/05/27 10:24:08;;;;;;;5.67;1.80;;;13.50;99.90;;;14.13;95.81;98310.38;5067325;28;20460;-78
2021/05/27 10:26:36;;;;;;;3.43;1.80;;;13.60;99.90;;;14.08;92.90;98320.72;5067914;28;20944;-79
2021/05/27 10:29:24;;;;;;;2.50;1.93;;;13.50;99.90;;;14.18;95.08;98326.38;5063826;28;20467;-78
2021/05/27 10:31:54;;;;;;;2.67;1.80;;;13.70;99.90;;;14.18;91.94;98315.84;5063233;28;20908;-78
2021/05/27 10:34:45;;;;;;;2.27;1.50;;;13.80;99.90;;;14.12;91.06;98316.66;5061515;28;20492;-78
2021/05/27 10:37:44;;;;;;;4.00;3.07;;;13.60;99.90;;;14.12;91.83;98316.66;5064521;28;20456;-79
2021/05/27 10:40:38;;;;;;;1.87;1.70;;;13.60;99.90;;;14.04;91.39;98325.56;5065568;28;21173;-78
2021/05/27 10:43:16;;;;;;;2.67;1.83;;;13.40;99.90;;;14.05;91.55;98315.84;5064461;28;20524;-79